createdAt,value
2022-12-03T00:00:31.354Z,2.9
2022-12-03T00:05:31.236Z,2.9
2022-12-03T00:10:31.218Z,2.9
2022-12-03T00:15:31.205Z,2.9
2022-12-03T00:20:31.182Z,2.8
2022-12-03T00:25:31.165Z,2.8
2022-12-03T00:30:31.155Z,2.8
2022-12-03T00:35:31.135Z,2.7
2022-12-03T00:40:31.109Z,2.7
2022-12-03T00:45:31.096Z,2.7
2022-12-03T00:50:31.078Z,2.6
2022-12-03T00:55:31.094Z,2.6
2022-12-03T01:00:31.156Z,2.6
2022-12-03T01:05:31.090Z,2.6
2022-12-03T01:10:31.047Z,2.6
2022-12-03T01:15:30.998Z,2.6
2022-12-03T01:20:30.979Z,2.6
2022-12-03T01:25:30.958Z,2.6
2022-12-03T01:30:30.943Z,2.5
2022-12-03T01:35:30.925Z,2.5
2022-12-03T01:40:30.916Z,2.5
2022-12-03T01:45:30.896Z,2.5
2022-12-03T01:50:30.872Z,2.5
2022-12-03T01:55:30.883Z,2.5
2022-12-03T02:00:30.918Z,2.5
2022-12-03T02:05:30.823Z,2.4
2022-12-03T02:10:30.850Z,2.4
2022-12-03T02:15:30.815Z,2.4
2022-12-03T02:20:30.769Z,2.4
2022-12-03T02:25:30.819Z,2.4
2022-12-03T02:30:30.739Z,2.4
2022-12-03T02:35:30.727Z,2.4
2022-12-03T02:40:30.709Z,2.4
2022-12-03T02:45:30.740Z,2.4
2022-12-03T02:50:30.671Z,2.4
2022-12-03T02:55:30.658Z,2.4
2022-12-03T03:00:30.661Z,2.3
2022-12-03T03:05:30.622Z,2.3
2022-12-03T03:10:30.620Z,2.3
2022-12-03T03:15:30.586Z,2.3
2022-12-03T03:20:30.574Z,2.3
2022-12-03T03:25:30.620Z,2.4
2022-12-03T03:30:30.542Z,2.4
2022-12-03T03:35:30.514Z,2.4
2022-12-03T03:40:30.497Z,2.4
2022-12-03T03:45:30.484Z,2.3
2022-12-03T03:50:30.488Z,2.3
2022-12-03T03:55:30.445Z,2.2
2022-12-03T04:00:30.571Z,2.2
2022-12-03T04:05:30.474Z,2.2
2022-12-03T04:10:30.396Z,2.2
2022-12-03T04:15:30.465Z,2.2
2022-12-03T04:20:30.363Z,2.1
2022-12-03T04:25:30.381Z,2
2022-12-03T04:30:30.340Z,2.1
2022-12-03T04:35:30.314Z,2
2022-12-03T04:40:30.422Z,2
2022-12-03T04:45:30.273Z,1.9
2022-12-03T04:50:30.298Z,2
2022-12-03T04:55:30.248Z,2
2022-12-03T05:00:30.230Z,1.9
2022-12-03T05:05:30.207Z,1.9
2022-12-03T05:10:30.219Z,1.9
2022-12-03T05:15:30.243Z,2
2022-12-03T05:20:30.162Z,1.9
2022-12-03T05:25:30.140Z,2
2022-12-03T05:30:30.304Z,2
2022-12-03T05:35:30.169Z,1.9
2022-12-03T05:40:30.100Z,1.9
2022-12-03T05:45:30.080Z,2
2022-12-03T05:50:30.073Z,2
2022-12-03T05:55:30.057Z,2
2022-12-03T06:00:30.040Z,2
2022-12-03T06:05:30.017Z,2
2022-12-03T06:10:29.996Z,2
2022-12-03T06:15:30.103Z,1.9
2022-12-03T06:20:29.969Z,1.9
2022-12-03T06:25:29.942Z,1.9
2022-12-03T06:30:29.932Z,1.9
2022-12-03T06:35:29.982Z,1.8
2022-12-03T06:40:29.899Z,1.9
2022-12-03T06:45:29.971Z,1.8
2022-12-03T06:50:29.939Z,1.9
2022-12-03T06:55:29.849Z,1.8
2022-12-03T07:00:29.875Z,1.8
2022-12-03T07:05:29.813Z,1.8
2022-12-03T07:10:29.877Z,1.8
2022-12-03T07:15:29.832Z,1.8
2022-12-03T07:20:29.763Z,1.8
2022-12-03T07:25:29.742Z,1.8
2022-12-03T07:30:29.767Z,1.9
2022-12-03T07:35:29.717Z,1.9
2022-12-03T07:40:29.772Z,1.9
2022-12-03T07:45:29.694Z,1.9
2022-12-03T07:50:29.677Z,1.9
2022-12-03T07:55:29.719Z,2
2022-12-03T08:00:29.678Z,2
2022-12-03T08:05:29.644Z,2
2022-12-03T08:10:29.625Z,2
2022-12-03T08:15:29.646Z,1.9
2022-12-03T08:20:29.571Z,2
2022-12-03T08:25:29.541Z,2
2022-12-03T08:30:29.520Z,2
2022-12-03T08:35:29.523Z,1.9
2022-12-03T08:40:29.517Z,1.9
2022-12-03T08:45:29.510Z,1.9
2022-12-03T08:50:29.459Z,1.9
2022-12-03T08:55:29.464Z,1.9
2022-12-03T09:00:29.461Z,1.9
2022-12-03T09:05:29.424Z,1.9
2022-12-03T09:10:29.405Z,2
2022-12-03T09:15:29.375Z,2.1
2022-12-03T09:20:29.360Z,2.2
2022-12-03T09:25:29.343Z,2.3
2022-12-03T09:30:29.479Z,2.4
2022-12-03T09:35:29.331Z,2.3
2022-12-03T09:40:29.446Z,2.3
2022-12-03T09:45:29.393Z,2.2
2022-12-03T09:50:29.314Z,2.3
2022-12-03T09:55:29.236Z,2.4
2022-12-03T10:00:29.223Z,2.3
2022-12-03T10:05:29.204Z,2.4
2022-12-03T10:10:29.182Z,2.5
2022-12-03T10:15:29.163Z,2.5
2022-12-03T10:20:29.153Z,2.6
2022-12-03T10:25:29.143Z,2.6
2022-12-03T10:30:29.116Z,2.6
2022-12-03T10:35:29.099Z,2.6
2022-12-03T10:40:29.081Z,2.5
2022-12-03T10:45:29.075Z,2.6
2022-12-03T10:50:29.069Z,2.6
2022-12-03T10:55:29.023Z,2.7
2022-12-03T11:00:29.013Z,2.7
2022-12-03T11:05:28.995Z,2.8
2022-12-03T11:10:28.983Z,2.8
2022-12-03T11:15:28.966Z,2.8
2022-12-03T11:20:28.941Z,3
2022-12-03T11:25:28.933Z,2.9
2022-12-03T11:30:28.914Z,3.1
2022-12-03T11:35:28.890Z,3.1
2022-12-03T11:40:28.869Z,3.2
2022-12-03T11:45:28.853Z,3.2
2022-12-03T11:50:28.833Z,3.3
2022-12-03T11:55:28.823Z,3.2
2022-12-03T12:00:28.814Z,3.3
2022-12-03T12:05:28.796Z,3.3
2022-12-03T12:10:28.780Z,3.3
2022-12-03T12:15:28.756Z,3.4
2022-12-03T12:20:28.733Z,3.4
2022-12-03T12:25:28.716Z,3.4
2022-12-03T12:30:28.709Z,3.4
2022-12-03T12:35:28.673Z,3.4
2022-12-03T12:40:28.672Z,3.3
2022-12-03T12:45:28.645Z,3.3
2022-12-03T12:50:28.750Z,3.3
2022-12-03T12:55:28.603Z,3.3
2022-12-03T13:00:28.591Z,3.4
2022-12-03T13:05:28.575Z,3.5
2022-12-03T13:10:28.556Z,3.5
2022-12-03T13:15:28.545Z,3.5
2022-12-03T13:20:28.589Z,3.6
2022-12-03T13:25:28.523Z,3.6
2022-12-03T13:30:28.598Z,3.7
2022-12-03T13:35:28.701Z,3.7
2022-12-03T13:40:28.597Z,3.8
2022-12-03T13:45:28.445Z,3.7
2022-12-03T13:50:28.557Z,3.7
2022-12-03T13:55:28.593Z,3.6
2022-12-03T14:00:28.630Z,3.7
2022-12-03T14:05:28.547Z,3.6
2022-12-03T14:10:28.399Z,3.6
2022-12-03T14:15:28.527Z,3.7
2022-12-03T14:20:28.499Z,3.6
2022-12-03T14:25:28.352Z,3.6
2022-12-03T14:30:28.275Z,3.6
2022-12-03T14:35:28.257Z,3.5
2022-12-03T14:40:28.257Z,3.5
2022-12-03T14:45:28.241Z,3.4
2022-12-03T14:50:28.393Z,3.2
2022-12-03T14:55:28.191Z,3.1
2022-12-03T15:00:28.254Z,2.9
2022-12-03T15:05:28.149Z,2.9
2022-12-03T15:10:28.172Z,2.7
2022-12-03T15:15:28.116Z,2.6
2022-12-03T15:20:28.251Z,2.5
2022-12-03T15:25:28.228Z,2.4
2022-12-03T15:30:28.252Z,2.3
2022-12-03T15:35:28.232Z,2.2
2022-12-03T15:40:28.196Z,2.2
2022-12-03T15:45:28.400Z,2.1
2022-12-03T15:50:28.273Z,2.1
2022-12-03T15:55:28.147Z,2.1
2022-12-03T16:00:28.036Z,2
2022-12-03T16:05:28.060Z,2
2022-12-03T16:10:28.000Z,1.9
2022-12-03T16:15:27.925Z,1.9
2022-12-03T16:20:28.061Z,1.8
2022-12-03T16:25:27.984Z,1.8
2022-12-03T16:30:28.077Z,1.7
2022-12-03T16:35:27.852Z,1.7
2022-12-03T16:40:27.879Z,1.6
2022-12-03T16:45:27.992Z,1.7
2022-12-03T16:50:27.925Z,1.6
2022-12-03T16:55:27.883Z,1.6
2022-12-03T17:00:27.953Z,1.6
2022-12-03T17:05:27.893Z,1.6
2022-12-03T17:10:27.815Z,1.6
2022-12-03T17:15:27.904Z,1.7
2022-12-03T17:20:27.795Z,1.7
2022-12-03T17:25:27.897Z,1.7
2022-12-03T17:30:27.855Z,1.7
2022-12-03T17:35:27.707Z,1.7
2022-12-03T17:40:27.774Z,1.7
2022-12-03T17:45:27.765Z,1.8
2022-12-03T17:50:27.823Z,1.8
2022-12-03T17:55:27.579Z,1.9
2022-12-03T18:00:27.697Z,1.9
2022-12-03T18:05:27.656Z,1.9
2022-12-03T18:10:27.610Z,1.9
2022-12-03T18:15:27.552Z,1.9
2022-12-03T18:20:27.577Z,1.9
2022-12-03T18:25:27.674Z,1.9
2022-12-03T18:30:27.461Z,2
2022-12-03T18:35:27.468Z,2
2022-12-03T18:40:27.434Z,2
2022-12-03T18:45:27.488Z,2
2022-12-03T18:50:27.405Z,1.9
2022-12-03T18:55:27.382Z,1.9
2022-12-03T19:00:27.363Z,1.8
2022-12-03T19:05:27.515Z,1.8
2022-12-03T19:10:27.489Z,1.7
2022-12-03T19:15:27.482Z,1.7
2022-12-03T19:20:27.459Z,1.6
2022-12-03T19:25:27.375Z,1.7
2022-12-03T19:30:27.467Z,1.7
2022-12-03T19:35:27.400Z,1.6
2022-12-03T19:40:27.365Z,1.7
2022-12-03T19:45:27.253Z,1.6
2022-12-03T19:50:27.309Z,1.7
2022-12-03T19:55:27.293Z,1.7
2022-12-03T20:00:27.249Z,1.7
2022-12-03T20:05:27.142Z,1.7
2022-12-03T20:10:27.184Z,1.7
2022-12-03T20:15:27.275Z,1.8
2022-12-03T20:20:27.097Z,1.8
2022-12-03T20:25:27.149Z,1.8
2022-12-03T20:30:27.065Z,1.8
2022-12-03T20:35:27.116Z,1.8
2022-12-03T20:40:27.132Z,1.8
2022-12-03T20:45:27.065Z,1.8
2022-12-03T20:50:27.144Z,1.8
2022-12-03T20:55:26.977Z,1.8
2022-12-03T21:00:26.961Z,1.8
2022-12-03T21:05:27.085Z,1.8
2022-12-03T21:10:26.927Z,1.8
2022-12-03T21:15:26.912Z,1.8
2022-12-03T21:20:26.886Z,1.8
2022-12-03T21:25:26.915Z,1.8
2022-12-03T21:30:26.989Z,1.8
2022-12-03T21:35:26.847Z,1.8
2022-12-03T21:40:26.818Z,1.7
2022-12-03T21:45:26.925Z,1.8
2022-12-03T21:50:26.801Z,1.8
2022-12-03T21:55:26.777Z,1.8
2022-12-03T22:00:26.760Z,1.8
2022-12-03T22:05:26.773Z,1.7
2022-12-03T22:10:26.731Z,1.8
2022-12-03T22:15:26.858Z,1.8
2022-12-03T22:20:26.842Z,1.7
2022-12-03T22:25:26.745Z,1.6
2022-12-03T22:30:26.845Z,1.7
2022-12-03T22:35:26.775Z,1.6
2022-12-03T22:40:26.656Z,1.6
2022-12-03T22:45:26.811Z,1.6
2022-12-03T22:50:26.704Z,1.5
2022-12-03T22:55:26.584Z,1.5
2022-12-03T23:00:26.655Z,1.5
2022-12-03T23:05:26.556Z,1.5
2022-12-03T23:10:26.656Z,1.5
2022-12-03T23:15:26.669Z,1.5
2022-12-03T23:20:26.552Z,1.5
2022-12-03T23:25:26.520Z,1.5
2022-12-03T23:30:26.551Z,1.4
2022-12-03T23:35:26.452Z,1.4
2022-12-03T23:40:26.437Z,1.4
2022-12-03T23:45:26.496Z,1.4
2022-12-03T23:50:26.451Z,1.3
2022-12-03T23:55:26.502Z,1.3
